Time;durP1;ratioP1;P1;durP2;ratioP2;P2;SDS_P1;SDS_P2;PMS_P1;PMS_P2;Temp;Humidity;BMP_temperature;BMP_pressure;BME280_temperature;BME280_humidity;BME280_pressure;Samples;Min_cycle;Max_cycle;Signal;HPM_P1;HPM_P2
2023/06/18 00:00:11;;;;;;;1.83;0.83;;;;;;;20.69;82.10;98360.84;6220063;23;20157;-89
2023/06/18 00:02:36;;;;;;;2.73;0.83;;;;;;;20.69;81.65;98357.34;6246777;23;20541;-89
2023/06/18 00:05:03;;;;;;;1.93;0.93;;;;;;;20.51;82.80;98357.47;6219985;23;20195;-88
2023/06/18 00:07:29;;;;;;;3.63;1.00;;;;;;;20.53;82.07;98357.31;6246671;23;20200;-89
2023/06/18 00:09:57;;;;;;;1.80;0.90;;;;;;;20.55;81.95;98355.31;6246892;23;20148;-88
2023/06/18 00:12:23;;;;;;;2.80;1.17;;;;;;;20.49;82.14;98350.66;6220186;23;20181;-88
2023/06/18 00:14:48;;;;;;;1.60;0.90;;;;;;;20.41;82.75;98347.97;6220282;23;20580;-88
2023/06/18 00:17:15;;;;;;;1.73;0.80;;;;;;;20.38;82.55;98333.16;6219904;23;20573;-89
2023/06/18 00:19:40;;;;;;;2.77;1.40;;;;;;;20.37;82.46;98330.63;6246449;23;20149;-88
2023/06/18 00:22:06;;;;;;;4.47;1.20;;;;;;;20.44;81.77;98332.47;6219749;23;20283;-89
2023/06/18 00:24:32;;;;;;;1.93;1.10;;;;;;;20.32;82.84;98340.94;6220083;23;20240;-88
2023/06/18 00:26:58;;;;;;;2.60;0.90;;;;;;;20.48;82.39;98347.16;6220125;23;20607;-88
2023/06/18 00:29:25;;;;;;;6.00;1.30;;;;;;;20.55;81.53;98355.31;6219571;23;20180;-88
2023/06/18 00:31:50;;;;;;;3.83;0.97;;;;;;;20.57;81.38;98353.34;6246459;23;20200;-88
2023/06/18 00:34:17;;;;;;;2.93;0.90;;;;;;;20.57;81.00;98359.47;6246497;23;20187;-88
2023/06/18 00:36:50;;;;;;;2.43;1.20;;;;;;;20.65;80.52;98356.81;6245871;23;20149;-89
2023/06/18 00:39:17;;;;;;;2.80;1.20;;;;;;;20.69;80.38;98373.34;6246275;23;20133;-88
2023/06/18 00:41:46;;;;;;;2.50;0.97;;;;;;;20.53;80.61;98373.28;6219911;23;20564;-88
2023/06/18 00:44:12;;;;;;;4.57;1.50;;;;;;;20.58;80.32;98378.94;6219570;23;20232;-88
2023/06/18 00:46:37;;;;;;;4.47;1.43;;;;;;;20.66;80.07;98374.50;6220067;23;20169;-88
2023/06/18 00:49:05;;;;;;;1.83;1.20;;;;;;;20.49;80.54;98375.41;6246106;23;20527;-89
2023/06/18 00:51:31;;;;;;;2.67;1.33;;;;;;;20.54;80.49;98369.63;6219473;23;20551;-87
2023/06/18 00:53:56;;;;;;;3.37;1.30;;;;;;;20.47;80.88;98384.56;6219655;23;20179;-88
2023/06/18 00:56:25;;;;;;;5.77;1.33;;;;;;;20.25;81.87;98375.34;6219926;23;20567;-88
2023/06/18 00:58:52;;;;;;;3.90;1.63;;;;;;;20.34;81.90;98374.38;6219598;23;20153;-88
2023/06/18 01:01:17;;;;;;;3.83;1.30;;;;;;;20.34;81.79;98376.19;6219369;23;20153;-88
2023/06/18 01:03:47;;;;;;;5.60;1.73;;;;;;;20.42;81.35;98371.75;6246396;23;20172;-88
2023/06/18 01:06:17;;;;;;;3.03;1.50;;;;;;;20.31;82.13;98374.69;6246314;23;20149;-88
2023/06/18 01:08:48;;;;;;;3.53;1.90;;;;;;;20.29;82.05;98375.84;6219392;23;20152;-88
2023/06/18 01:11:19;;;;;;;6.03;2.17;;;;;;;20.25;82.35;98383.31;6220638;23;20149;-88
2023/06/18 01:13:45;;;;;;;8.80;2.33;;;;;;;20.26;82.53;98381.50;6219200;23;20519;-88
2023/06/18 01:16:13;;;;;;;4.93;2.50;;;;;;;20.21;82.61;98390.75;6219450;23;20242;-88
2023/06/18 01:18:46;;;;;;;9.90;2.63;;;;;;;20.09;83.21;98393.84;6219461;23;20242;-89
2023/06/18 01:21:18;;;;;;;8.33;2.60;;;;;;;20.12;83.50;98396.22;6219607;23;20167;-88
2023/06/18 01:24:11;;;;;;;8.17;2.50;;;;;;;20.10;83.64;98393.69;6219394;23;20148;-88
2023/06/18 01:26:41;;;;;;;5.50;2.40;;;;;;;19.88;84.87;98398.72;6219394;23;20143;-88
2023/06/18 01:29:10;;;;;;;4.93;2.27;;;;;;;19.99;84.39;98396.63;6219748;23;20558;-88
2023/06/18 01:31:36;;;;;;;8.93;2.67;;;;;;;20.01;84.44;98399.97;6219927;23;20495;-89
2023/06/18 01:34:04;;;;;;;5.33;2.00;;;;;;;20.10;83.88;98412.31;6219598;23;20226;-88
2023/06/18 01:37:03;;;;;;;4.13;2.30;;;;;;;20.13;83.28;98406.69;6219232;23;20215;-89
2023/06/18 01:39:46;;;;;;;6.77;2.17;;;;;;;20.10;83.31;98414.97;6246060;23;20230;-89
2023/06/18 01:42:21;;;;;;;5.77;2.90;;;;;;;20.10;83.50;98414.97;6248227;23;20134;-88
2023/06/18 01:44:55;;;;;;;9.10;2.60;;;;;;;20.19;83.17;98416.69;6248098;23;20137;-88
2023/06/18 01:47:26;;;;;;;6.93;2.50;;;;;;;20.23;82.69;98426.06;6247676;23;20162;-89
2023/06/18 01:49:55;;;;;;;6.07;2.17;;;;;;;20.18;82.54;98427.47;6221330;23;20478;-90
2023/06/18 01:52:24;;;;;;;4.33;2.33;;;;;;;20.11;83.22;98429.94;6221109;23;20517;-89
2023/06/18 01:54:53;;;;;;;9.40;2.47;;;;;;;20.12;83.10;98434.28;6221117;23;20482;-88
2023/06/18 01:57:20;;;;;;;4.10;2.10;;;;;;;20.21;82.42;98437.81;6247904;23;20231;-88
2023/06/18 01:59:50;;;;;;;3.73;2.00;;;;;;;20.27;82.22;98439.03;6220986;23;20608;-88
2023/06/18 02:02:16;;;;;;;3.30;1.80;;;;;;;20.25;81.47;98444.53;6247530;23;20130;-88
2023/06/18 02:04:43;;;;;;;4.30;2.13;;;;;;;20.26;81.65;98438.22;6221042;23;20171;-88
2023/06/18 02:07:11;;;;;;;4.50;2.40;;;;;;;20.33;81.59;98446.41;6247321;23;20214;-88
2023/06/18 02:09:38;;;;;;;6.67;2.20;;;;;;;20.40;81.05;98458.09;6247815;23;20157;-88
2023/06/18 02:12:04;;;;;;;3.80;1.80;;;;;;;20.44;80.82;98451.47;6247306;23;20172;-88
2023/06/18 02:14:30;;;;;;;5.57;2.33;;;;;;;20.49;80.41;98451.81;6221378;23;20155;-88
2023/06/18 02:16:56;;;;;;;4.10;2.60;;;;;;;20.47;79.83;98459.94;6247315;23;20236;-88
2023/06/18 02:19:22;;;;;;;6.07;2.10;;;;;;;20.42;80.48;98464.06;6247395;23;20293;-88
2023/06/18 02:21:48;;;;;;;5.40;2.60;;;;;;;20.40;80.44;98455.41;6247219;23;20164;-88
2023/06/18 02:24:16;;;;;;;6.50;2.37;;;;;;;20.43;80.29;98457.75;6247310;23;20469;-89
2023/06/18 02:26:43;;;;;;;12.37;2.50;;;;;;;20.45;80.25;98459.28;6247273;23;20149;-88
2023/06/18 02:29:09;;;;;;;7.10;2.30;;;;;;;20.48;80.03;98458.13;6246886;23;20145;-88
2023/06/18 02:31:36;;;;;;;6.77;1.97;;;;;;;20.48;80.28;98468.78;6247234;23;20172;-88
2023/06/18 02:34:03;;;;;;;4.00;2.63;;;;;;;20.51;79.80;98474.63;6247619;23;20151;-89
2023/06/18 02:36:28;;;;;;;6.43;3.27;;;;;;;20.49;79.93;98473.94;6247620;23;20223;-88
2023/06/18 02:38:55;;;;;;;6.80;2.50;;;;;;;20.38;80.48;98470.72;6247629;23;20180;-90
2023/06/18 02:41:22;;;;;;;7.70;3.00;;;;;;;20.38;80.52;98473.38;6220782;23;20188;-88
2023/06/18 02:43:49;;;;;;;9.07;3.77;;;;;;;20.34;80.84;98478.19;6247563;23;20150;-88
2023/06/18 02:46:16;;;;;;;12.57;4.83;;;;;;;20.29;80.63;98474.31;6247157;23;20153;-88
2023/06/18 02:48:42;;;;;;;7.90;3.73;;;;;;;20.18;81.25;98475.38;6247249;23;20152;-91
2023/06/18 02:51:08;;;;;;;19.97;5.27;;;;;;;20.09;82.03;98471.00;6246899;23;20160;-89
2023/06/18 02:53:33;;;;;;;9.90;5.00;;;;;;;20.05;82.23;98473.16;6246717;23;20196;-89
2023/06/18 02:56:01;;;;;;;10.20;4.37;;;;;;;20.14;81.60;98480.19;6247143;23;20568;-89
2023/06/18 02:58:29;;;;;;;8.67;4.27;;;;;;;20.15;81.15;98484.50;6246784;23;20149;-88
2023/06/18 03:00:59;;;;;;;9.13;4.17;;;;;;;20.19;81.68;98488.53;6247022;23;20286;-90
2023/06/18 03:03:24;;;;;;;8.53;5.27;;;;;;;20.17;81.48;98495.84;6246850;23;20149;-89
2023/06/18 03:05:52;;;;;;;6.20;3.40;;;;;;;20.28;80.27;98496.63;6247067;23;20480;-88
2023/06/18 03:08:18;;;;;;;6.90;3.47;;;;;;;20.25;80.21;98499.59;6246147;23;20168;-88
2023/06/18 03:10:45;;;;;;;6.90;3.00;;;;;;;20.17;80.74;98503.00;6246458;23;20145;-89
2023/06/18 03:13:11;;;;;;;7.80;3.53;;;;;;;20.23;80.42;98497.91;6246711;23;20179;-88
2023/06/18 03:15:37;;;;;;;6.80;3.00;;;;;;;20.23;80.33;98505.00;6246850;23;20148;-88
2023/06/18 03:18:04;;;;;;;5.03;2.83;;;;;;;20.24;80.37;98501.41;6246756;23;20149;-87
2023/06/18 03:20:30;;;;;;;5.40;2.90;;;;;;;20.31;80.54;98504.28;6220016;23;20659;-88
2023/06/18 03:22:56;;;;;;;7.53;3.37;;;;;;;20.24;80.43;98506.72;6221090;23;20518;-88
2023/06/18 03:25:23;;;;;;;4.77;2.33;;;;;;;20.19;80.49;98499.19;6220299;23;20153;-87
2023/06/18 03:27:53;;;;;;;8.10;3.20;;;;;;;20.28;79.81;98504.59;6220134;23;20149;-88
2023/06/18 03:30:20;;;;;;;6.97;2.80;;;;;;;20.18;79.92;98502.84;6220549;23;20218;-88
2023/06/18 03:32:45;;;;;;;8.33;3.00;;;;;;;20.23;80.23;98505.88;6220165;23;20487;-88
2023/06/18 03:35:12;;;;;;;7.63;3.57;;;;;;;20.22;79.70;98501.53;6246841;23;20216;-88
2023/06/18 03:37:37;;;;;;;7.00;3.10;;;;;;;20.32;79.36;98496.13;6220519;23;20164;-87
2023/06/18 03:40:05;;;;;;;6.00;2.80;;;;;;;20.34;79.32;98504.78;6246343;23;20480;-88
2023/06/18 03:42:31;;;;;;;4.60;2.70;;;;;;;20.27;79.23;98500.25;6221476;23;20515;-88
2023/06/18 03:44:58;;;;;;;9.87;3.17;;;;;;;20.37;78.42;98500.97;6220463;23;20219;-88
2023/06/18 03:47:23;;;;;;;5.50;2.70;;;;;;;20.50;77.23;98509.38;6219833;23;20195;-87
2023/06/18 03:49:50;;;;;;;4.80;2.93;;;;;;;20.55;77.61;98513.22;6246452;23;20145;-88
2023/06/18 03:52:16;;;;;;;7.20;2.33;;;;;;;20.46;77.86;98516.03;6247057;23;20679;-88
2023/06/18 03:54:42;;;;;;;4.57;2.50;;;;;;;20.58;77.53;98510.25;6220230;23;20188;-89
2023/06/18 03:57:08;;;;;;;7.03;2.70;;;;;;;20.68;77.41;98515.47;6246770;23;20145;-88
2023/06/18 03:59:35;;;;;;;7.03;2.47;;;;;;;20.73;76.89;98513.16;6246370;23;20156;-89
2023/06/18 04:02:00;;;;;;;7.40;3.07;;;;;;;20.82;76.42;98517.53;6219947;23;20150;-88
2023/06/18 04:04:26;;;;;;;5.70;2.47;;;;;;;20.85;76.01;98514.56;6245934;23;20149;-88
2023/06/18 04:06:51;;;;;;;7.80;3.40;;;;;;;20.78;76.76;98524.16;6246197;23;20502;-88
2023/06/18 04:09:18;;;;;;;4.90;2.20;;;;;;;20.81;75.49;98526.50;6245906;23;20149;-88
2023/06/18 04:11:45;;;;;;;4.87;2.40;;;;;;;20.97;75.07;98526.59;6219799;23;20195;-89
2023/06/18 04:14:12;;;;;;;7.70;2.77;;;;;;;20.97;74.95;98523.91;6246179;23;20617;-89
2023/06/18 04:16:38;;;;;;;6.13;2.70;;;;;;;20.88;74.50;98522.22;6246987;23;20145;-88
2023/06/18 04:19:04;;;;;;;6.30;2.67;;;;;;;20.83;75.65;98522.69;6246393;23;20160;-88
2023/06/18 04:21:30;;;;;;;7.30;3.37;;;;;;;20.97;75.39;98531.06;6225889;23;20161;-89
2023/06/18 04:23:56;;;;;;;4.97;2.70;;;;;;;21.13;74.36;98526.69;6189587;23;20150;-88
2023/06/18 04:26:23;;;;;;;4.23;2.33;;;;;;;21.25;73.77;98529.91;6215780;23;20620;-88
2023/06/18 04:28:52;;;;;;;7.70;2.70;;;;;;;21.13;73.96;98532.00;6190004;23;20150;-88
2023/06/18 04:31:19;;;;;;;5.80;2.73;;;;;;;21.24;74.13;98523.72;6189686;23;20173;-88
2023/06/18 04:33:45;;;;;;;8.87;3.00;;;;;;;21.35;74.28;98525.25;6215793;23;20178;-88
2023/06/18 04:36:14;;;;;;;5.13;3.00;;;;;;;21.15;73.97;98527.34;6189429;23;20505;-88
2023/06/18 04:38:40;;;;;;;4.73;2.80;;;;;;;21.33;73.97;98528.06;6189478;23;20160;-88
2023/06/18 04:41:05;;;;;;;9.80;2.70;;;;;;;21.56;72.47;98535.44;6214275;23;20229;-88
2023/06/18 04:43:31;;;;;;;6.13;2.70;;;;;;;21.50;73.30;98534.28;6187450;23;20153;-88
2023/06/18 04:45:56;;;;;;;6.17;2.47;;;;;;;21.58;73.08;98541.44;6213654;23;20150;-88
2023/06/18 04:48:22;;;;;;;4.27;2.60;;;;;;;21.50;72.97;98534.28;6213666;23;20557;-88
2023/06/18 04:50:49;;;;;;;5.50;2.80;;;;;;;21.42;72.95;98542.25;6214958;23;20588;-88
2023/06/18 04:53:14;;;;;;;9.93;3.00;;;;;;;21.52;72.78;98542.09;6215364;23;20170;-88
2023/06/18 04:55:40;;;;;;;9.13;3.63;;;;;;;21.61;71.83;98538.47;6187959;23;20177;-87
2023/06/18 04:58:07;;;;;;;5.60;2.83;;;;;;;21.49;73.57;98547.78;6187453;23;20160;-90
2023/06/18 05:00:33;;;;;;;5.90;2.50;;;;;;;21.65;73.16;98548.63;6215176;23;20145;-89
2023/06/18 05:03:04;;;;;;;4.73;2.73;;;;;;;21.99;71.79;98548.50;6215200;23;20153;-89
2023/06/18 05:05:31;;;;;;;4.83;2.20;;;;;;;21.85;71.93;98555.34;6215319;23;20130;-88
2023/06/18 05:07:57;;;;;;;5.57;2.23;;;;;;;22.00;71.96;98552.88;6189053;23;20228;-88
2023/06/18 05:10:24;;;;;;;5.00;3.17;;;;;;;22.20;70.03;98548.00;6215017;23;20198;-88
2023/06/18 05:12:51;;;;;;;5.23;2.77;;;;;;;22.22;69.61;98552.19;6213667;23;20256;-90
2023/06/18 05:15:17;;;;;;;10.13;3.00;;;;;;;22.42;69.75;98556.19;6215816;23;20153;-89
2023/06/18 05:17:43;;;;;;;4.63;2.60;;;;;;;22.42;68.61;98548.16;6217963;23;20216;-91
2023/06/18 05:20:08;;;;;;;3.77;2.30;;;;;;;22.67;68.43;98553.50;6194588;23;20239;-90
2023/06/18 05:22:34;;;;;;;9.13;2.77;;;;;;;22.52;68.94;98554.16;6249108;23;20224;-93
2023/06/18 05:25:01;;;;;;;5.93;3.30;;;;;;;22.39;69.71;98563.69;6223212;23;20161;-93
2023/06/18 05:27:28;;;;;;;4.10;2.83;;;;;;;22.48;68.81;98563.50;6248802;23;20145;-89
2023/06/18 05:29:55;;;;;;;6.23;2.90;;;;;;;22.74;69.70;98563.34;6248863;23;20217;-92
2023/06/18 05:32:22;;;;;;;7.30;2.90;;;;;;;22.85;68.36;98573.63;6222306;23;20180;-91
2023/06/18 05:34:56;;;;;;;3.97;2.53;;;;;;;22.74;67.83;98567.84;6247798;23;20557;-90
2023/06/18 05:37:23;;;;;;;4.63;2.97;;;;;;;22.86;67.83;98572.63;6248588;23;20136;-91
2023/06/18 05:39:52;;;;;;;6.20;3.07;;;;;;;22.93;68.76;98573.59;6221172;23;20489;-91
2023/06/18 05:42:22;;;;;;;5.07;3.13;;;;;;;22.97;69.12;98568.75;6221843;23;20157;-93
2023/06/18 05:44:54;;;;;;;4.93;2.80;;;;;;;23.24;68.84;98587.06;6222844;23;20153;-93
2023/06/18 05:47:20;;;;;;;4.43;2.80;;;;;;;23.06;67.93;98584.59;6222236;23;20145;-88
2023/06/18 05:49:47;;;;;;;8.67;3.20;;;;;;;23.05;68.08;98588.28;6248633;23;20188;-91
2023/06/18 05:52:14;;;;;;;5.30;3.23;;;;;;;23.15;69.22;98586.25;6222272;23;20267;-91
2023/06/18 05:54:43;;;;;;;4.83;3.27;;;;;;;23.08;67.49;98581.75;6247415;23;20148;-91
2023/06/18 05:57:11;;;;;;;7.37;4.00;;;;;;;22.97;68.91;98584.81;6222255;23;20484;-91
2023/06/18 05:59:37;;;;;;;6.20;3.37;;;;;;;22.91;68.51;98588.16;6248602;23;20149;-89
2023/06/18 06:02:22;;;;;;;6.03;3.90;;;;;;;23.17;68.99;98597.59;6248065;23;20180;-91
2023/06/18 06:04:58;;;;;;;8.30;4.00;;;;;;;23.16;69.74;98601.28;6221518;23;20141;-93
2023/06/18 06:07:45;;;;;;;5.73;3.43;;;;;;;23.35;69.57;98600.00;6222053;23;20156;-92
2023/06/18 06:10:19;;;;;;;8.23;3.30;;;;;;;23.43;68.72;98602.69;6221476;23;20137;-91
2023/06/18 06:12:48;;;;;;;5.33;3.10;;;;;;;23.39;69.25;98601.38;6219917;23;20185;-88
2023/06/18 06:15:30;;;;;;;7.57;3.67;;;;;;;23.50;70.58;98609.03;6247018;23;20278;-88
2023/06/18 06:17:56;;;;;;;5.80;3.73;;;;;;;23.69;69.95;98613.91;6219977;23;20228;-90
2023/06/18 06:21:01;;;;;;;8.80;4.00;;;;;;;23.83;71.95;98605.13;6246106;23;20533;-92
2023/06/18 06:33:51;;;;;;;;;;;;;;;;;;;;;
2023/06/18 06:36:17;;;;;;;7.07;4.47;;;;;;;24.05;69.86;98613.38;6162510;23;20240;-89
2023/06/18 06:38:42;;;;;;;12.00;4.37;;;;;;;24.16;69.67;98615.66;6214462;23;20535;-86
2023/06/18 06:41:08;;;;;;;6.37;4.30;;;;;;;24.17;69.60;98618.16;6215275;23;20225;-87
2023/06/18 06:43:33;;;;;;;8.60;3.77;;;;;;;24.28;68.32;98615.06;6215275;23;20448;-87
2023/06/18 06:45:59;;;;;;;6.40;3.90;;;;;;;24.43;67.56;98618.59;6215050;23;20480;-86
2023/06/18 06:48:27;;;;;;;8.20;4.37;;;;;;;24.35;68.77;98618.69;6213360;23;20514;-86
2023/06/18 06:51:04;;;;;;;7.63;4.13;;;;;;;24.49;68.27;98622.41;6216403;23;20160;-86
2023/06/18 06:53:30;;;;;;;6.30;3.73;;;;;;;24.53;67.77;98626.38;6188980;23;20601;-89
2023/06/18 06:55:55;;;;;;;8.70;3.80;;;;;;;24.51;67.17;98623.06;6187959;23;20160;-86
2023/06/18 06:58:20;;;;;;;10.47;4.20;;;;;;;24.49;67.31;98619.75;6214438;23;20146;-86
2023/06/18 07:00:46;;;;;;;5.97;3.67;;;;;;;24.67;67.16;98620.25;6215405;23;20160;-87
2023/06/18 07:03:11;;;;;;;5.93;3.87;;;;;;;24.60;68.04;98621.97;6215724;23;20153;-86
2023/06/18 07:05:37;;;;;;;5.20;3.20;;;;;;;24.42;68.68;98624.16;6215926;23;20153;-87
2023/06/18 07:08:05;;;;;;;5.47;3.47;;;;;;;24.55;67.24;98631.59;6216050;23;20157;-87
2023/06/18 07:10:31;;;;;;;7.83;3.73;;;;;;;24.70;66.86;98630.59;6189236;23;20492;-87
2023/06/18 07:12:56;;;;;;;5.67;3.73;;;;;;;25.02;69.13;98627.63;6215860;23;20173;-87
2023/06/18 07:15:21;;;;;;;5.87;3.47;;;;;;;25.22;65.10;98627.06;6215701;23;20154;-88
2023/06/18 07:17:47;;;;;;;7.63;4.17;;;;;;;25.42;63.43;98630.84;6215868;23;20149;-87
2023/06/18 07:20:12;;;;;;;7.10;3.33;;;;;;;25.40;63.84;98639.06;6213666;23;20153;-88
2023/06/18 07:22:40;;;;;;;5.22;3.20;;;;;;;25.49;62.45;98640.69;6238606;23;20161;-88
2023/06/18 07:25:06;;;;;;;4.40;2.93;;;;;;;25.50;61.85;98645.00;6245831;23;20150;-89
2023/06/18 07:27:42;;;;;;;6.47;3.57;;;;;;;25.33;62.75;98640.84;6219574;23;20512;-88
2023/06/18 07:30:08;;;;;;;7.67;3.20;;;;;;;25.34;63.33;98644.38;6219153;23;20180;-89
2023/06/18 07:32:42;;;;;;;4.67;3.00;;;;;;;25.29;62.81;98639.53;6218273;23;20209;-91
2023/06/18 07:35:10;;;;;;;4.37;2.60;;;;;;;25.39;61.95;98642.75;6218691;23;20540;-89
2023/06/18 07:37:35;;;;;;;4.10;2.40;;;;;;;25.40;62.33;98640.91;6245680;23;20187;-88
2023/06/18 07:40:01;;;;;;;4.17;2.20;;;;;;;25.46;60.26;98641.06;6219173;23;20149;-88
2023/06/18 07:42:26;;;;;;;3.63;2.30;;;;;;;25.25;60.19;98646.31;6244488;23;20149;-89
2023/06/18 07:44:52;;;;;;;3.20;1.57;;;;;;;25.20;60.22;98642.50;6245680;23;20210;-88
2023/06/18 07:47:18;;;;;;;5.17;2.50;;;;;;;25.37;59.53;98638.59;6246440;23;20275;-88
2023/06/18 07:49:43;;;;;;;3.83;2.00;;;;;;;25.47;59.99;98644.56;6245459;23;20173;-89
2023/06/18 07:52:09;;;;;;;6.47;2.17;;;;;;;25.51;59.45;98648.53;6246478;23;20550;-89
2023/06/18 07:54:35;;;;;;;10.67;2.57;;;;;;;25.54;60.01;98651.69;6246593;23;20235;-88
2023/06/18 07:57:01;;;;;;;5.13;2.20;;;;;;;25.53;58.89;98647.31;6246479;23;20224;-88
2023/06/18 07:59:27;;;;;;;5.37;2.20;;;;;;;25.47;58.95;98658.00;6246903;23;20206;-90
2023/06/18 08:01:52;;;;;;;6.67;2.90;;;;;;;25.53;60.38;98655.38;6246594;23;20149;-89
2023/06/18 08:04:18;;;;;;;5.43;2.80;;;;;;;25.69;60.24;98664.22;6246287;23;20145;-89
2023/06/18 08:06:46;;;;;;;2.87;1.70;;;;;;;25.94;57.36;98661.03;6246525;23;20207;-88
2023/06/18 08:09:11;;;;;;;5.67;3.90;;;;;;;26.06;58.08;98656.84;6219982;23;20576;-88
2023/06/18 08:11:37;;;;;;;5.30;2.83;;;;;;;26.14;58.12;98646.00;6219878;23;20164;-89
2023/06/18 08:14:03;;;;;;;4.35;1.95;;;;;;;26.47;58.10;98658.91;6219671;23;20191;-88
2023/06/18 08:16:29;;;;;;;3.25;1.80;;;;;;;26.71;57.38;98650.44;6246541;23;20560;-88
2023/06/18 08:18:54;;;;;;;3.55;1.90;;;;;;;27.03;54.83;98652.59;6246779;23;20145;-89
2023/06/18 08:21:20;;;;;;;14.07;6.55;;;;;;;27.10;54.99;98650.75;6246234;23;20173;-89
2023/06/18 08:23:50;;;;;;;6.05;2.20;;;;;;;27.23;54.00;98648.16;6246645;23;20220;-92
2023/06/18 08:26:21;;;;;;;2.75;1.48;;;;;;;27.33;51.70;98643.22;6246642;23;20149;-91
2023/06/18 08:28:46;;;;;;;5.75;1.75;;;;;;;27.17;52.31;98640.91;6246960;23;20557;-91
2023/06/18 08:31:11;;;;;;;4.28;1.58;;;;;;;27.34;53.31;98647.59;6246288;23;20145;-91
2023/06/18 08:33:40;;;;;;;3.40;1.67;;;;;;;27.52;51.70;98652.47;6246448;23;20496;-91
2023/06/18 08:36:05;;;;;;;2.60;1.33;;;;;;;27.41;50.68;98659.25;6246230;23;20211;-90
2023/06/18 08:38:31;;;;;;;6.68;3.70;;;;;;;27.47;52.30;98656.78;6219812;23;20153;-89
2023/06/18 08:41:07;;;;;;;4.78;2.47;;;;;;;27.59;50.96;98657.91;6246204;23;20224;-91
2023/06/18 08:43:38;;;;;;;1.92;1.20;;;;;;;27.56;50.20;98655.63;6246999;23;20140;-92
2023/06/18 08:46:15;;;;;;;5.03;2.53;;;;;;;27.66;49.85;98661.44;6246584;23;20171;-92
2023/06/18 08:48:55;;;;;;;6.75;3.13;;;;;;;27.54;51.50;98655.00;6245971;23;20168;-90
2023/06/18 08:51:21;;;;;;;3.70;2.03;;;;;;;27.50;51.59;98667.16;6246085;23;20144;-89
2023/06/18 08:53:58;;;;;;;3.15;1.67;;;;;;;27.48;52.09;98655.78;6219418;23;20195;-90
2023/06/18 08:56:25;;;;;;;4.95;1.95;;;;;;;27.57;51.45;98662.66;6219662;23;20141;-89
2023/06/18 08:58:57;;;;;;;3.60;1.60;;;;;;;27.64;52.23;98658.13;6246033;23;20172;-91
2023/06/18 09:01:32;;;;;;;5.90;2.47;;;;;;;27.69;50.22;98661.06;6246372;23;20134;-90
2023/06/18 09:03:59;;;;;;;3.83;2.00;;;;;;;27.61;51.17;98658.53;6246753;23;20214;-90
2023/06/18 09:06:25;;;;;;;5.68;2.95;;;;;;;27.65;51.12;98659.78;6246213;23;20161;-89
2023/06/18 09:08:52;;;;;;;2.97;1.67;;;;;;;27.53;52.50;98650.63;6245978;23;20160;-90
2023/06/18 09:11:17;;;;;;;3.35;1.95;;;;;;;27.50;51.90;98651.84;6246405;23;20150;-91
2023/06/18 09:13:43;;;;;;;3.85;2.10;;;;;;;27.63;50.58;98651.91;6219819;23;20184;-91
2023/06/18 09:16:10;;;;;;;4.28;2.10;;;;;;;27.73;53.61;98651.53;6245972;23;20159;-90
2023/06/18 09:18:36;;;;;;;8.60;4.90;;;;;;;27.81;53.31;98652.19;6246229;23;20218;-91
2023/06/18 09:21:03;;;;;;;4.35;2.03;;;;;;;27.88;52.44;98657.63;6219358;23;20157;-89
2023/06/18 09:23:29;;;;;;;7.60;2.70;;;;;;;27.88;51.99;98654.94;6246166;23;20460;-89
2023/06/18 09:25:56;;;;;;;2.83;1.60;;;;;;;28.00;50.21;98658.69;6245906;23;20424;-90
2023/06/18 09:28:23;;;;;;;2.35;1.45;;;;;;;28.10;49.45;98659.16;6245757;23;20145;-90
2023/06/18 09:30:53;;;;;;;8.57;3.72;;;;;;;28.34;49.63;98655.06;6219422;23;20478;-92
2023/06/18 09:33:32;;;;;;;6.35;3.25;;;;;;;28.16;49.90;98654.81;6219410;23;20211;-90
2023/06/18 09:36:01;;;;;;;10.00;3.60;;;;;;;28.17;49.13;98649.22;6219648;23;20141;-92
2023/06/18 09:38:40;;;;;;;3.33;1.65;;;;;;;28.10;48.55;98644.84;6219372;23;20157;-92
2023/06/18 09:41:27;;;;;;;3.15;1.83;;;;;;;28.45;49.79;98654.47;6245819;23;20152;-90
2023/06/18 09:43:54;;;;;;;3.72;1.55;;;;;;;28.34;47.86;98653.19;6246142;23;20220;-92
2023/06/18 09:46:25;;;;;;;4.28;1.92;;;;;;;28.56;50.76;98660.03;6219265;23;20608;-90
2023/06/18 09:48:50;;;;;;;4.82;1.90;;;;;;;28.72;48.82;98649.94;6219535;23;20141;-91
2023/06/18 09:51:25;;;;;;;4.45;1.92;;;;;;;28.92;48.87;98648.06;6219953;23;20234;-94
2023/06/18 09:53:59;;;;;;;3.78;2.20;;;;;;;29.08;49.34;98645.75;6245659;23;20620;-89
2023/06/18 09:56:25;;;;;;;3.40;1.70;;;;;;;29.14;46.53;98649.50;6246214;23;20186;-93
2023/06/18 09:58:51;;;;;;;4.30;2.17;;;;;;;29.13;47.77;98645.94;6219189;23;20157;-91
2023/06/18 10:01:18;;;;;;;8.82;1.90;;;;;;;29.21;49.27;98647.63;6217827;23;20565;-92
2023/06/18 10:03:57;;;;;;;6.95;1.70;;;;;;;28.99;45.20;98649.69;6221001;23;20149;-91
2023/06/18 10:06:26;;;;;;;2.60;1.35;;;;;;;29.09;45.74;98650.09;6221075;23;20148;-93
2023/06/18 10:09:00;;;;;;;2.95;1.60;;;;;;;29.12;46.31;98648.84;6220769;23;20149;-91
2023/06/18 10:11:29;;;;;;;3.55;1.60;;;;;;;28.99;45.62;98640.78;6220904;23;20160;-90
2023/06/18 10:13:57;;;;;;;2.17;1.20;;;;;;;29.02;46.12;98641.19;6219704;23;20188;-91
2023/06/18 10:16:30;;;;;;;2.85;1.20;;;;;;;29.34;44.82;98636.78;6220477;23;20218;-89
2023/06/18 10:19:50;;;;;;;2.47;1.30;;;;;;;29.28;45.68;98634.94;6247177;23;20144;-91
2023/06/18 10:22:20;;;;;;;3.30;1.25;;;;;;;29.34;45.69;98626.00;6209051;23;20172;-92
2023/06/18 10:24:56;;;;;;;3.22;1.10;;;;;;;29.49;46.26;98626.56;6244088;23;20160;-89
2023/06/18 10:27:22;;;;;;;2.35;1.33;;;;;;;29.49;44.63;98634.66;6244845;23;20508;-91
2023/06/18 10:29:51;;;;;;;8.25;1.45;;;;;;;29.53;47.95;98632.38;6217910;23;20576;-90
2023/06/18 10:32:17;;;;;;;2.58;1.38;;;;;;;29.62;46.33;98625.69;6217552;23;20181;-90
2023/06/18 10:34:45;;;;;;;2.92;1.70;;;;;;;29.58;45.20;98622.59;6245935;23;20184;-91
2023/06/18 10:37:14;;;;;;;3.55;1.48;;;;;;;29.76;46.92;98614.63;6220149;23;20164;-89
2023/06/18 10:39:40;;;;;;;2.70;1.40;;;;;;;30.17;45.80;98613.34;6246378;23;20152;-89
2023/06/18 10:42:14;;;;;;;2.72;0.95;;;;;;;30.11;45.25;98614.25;6246953;23;20153;-88
2023/06/18 10:44:49;;;;;;;2.30;1.38;;;;;;;29.85;44.15;98619.81;6246627;23;20232;-89
2023/06/18 10:47:19;;;;;;;2.55;1.40;;;;;;;29.71;46.16;98617.13;6220259;23;20157;-89
2023/06/18 10:50:03;;;;;;;2.20;1.20;;;;;;;29.83;44.22;98607.31;6220387;23;20220;-91
2023/06/18 10:52:40;;;;;;;4.47;1.60;;;;;;;29.87;46.51;98615.00;6220099;23;20553;-90
2023/06/18 10:55:27;;;;;;;2.42;1.33;;;;;;;30.04;44.14;98614.25;6246703;23;20227;-91
2023/06/18 10:58:40;;;;;;;;;;;;;;;;;;;;;
2023/06/18 11:04:10;;;;;;;2.63;1.55;;;;;;;29.53;45.99;98603.50;6246751;23;20192;-90
2023/06/18 11:06:36;;;;;;;2.65;1.40;;;;;;;29.64;46.49;98600.09;6246636;23;20149;-92
2023/06/18 11:09:02;;;;;;;5.35;1.80;;;;;;;30.09;45.76;98587.41;6219930;23;20157;-92
2023/06/18 11:11:31;;;;;;;2.67;1.27;;;;;;;30.08;43.16;98595.75;6221012;23;20604;-92
2023/06/18 11:13:56;;;;;;;5.32;1.60;;;;;;;30.40;46.31;98600.94;6219634;23;20226;-91
2023/06/18 11:16:25;;;;;;;2.72;1.30;;;;;;;30.52;42.83;98589.41;6219730;23;20549;-93
2023/06/18 11:19:02;;;;;;;2.70;1.35;;;;;;;30.67;42.91;98584.47;6246703;23;20179;-93
2023/06/18 11:21:27;;;;;;;6.13;1.25;;;;;;;30.45;42.70;98586.78;6245123;23;20169;-92
2023/06/18 11:23:56;;;;;;;2.60;1.58;;;;;;;30.55;42.77;98591.69;6219630;23;20153;-92
2023/06/18 11:26:21;;;;;;;1.75;1.08;;;;;;;30.35;43.14;98591.78;6246736;23;20160;-94
2023/06/18 11:28:50;;;;;;;3.08;1.60;;;;;;;30.34;42.48;98579.34;6220537;23;20157;-91
2023/06/18 11:31:16;;;;;;;3.53;1.85;;;;;;;30.11;44.38;98584.50;6220272;23;20565;-92
2023/06/18 11:33:49;;;;;;;3.63;1.25;;;;;;;30.24;42.80;98579.00;6220477;23;20177;-93
2023/06/18 11:36:21;;;;;;;3.60;1.80;;;;;;;30.46;43.93;98577.59;6247206;23;20164;-94
2023/06/18 11:38:47;;;;;;;2.35;1.45;;;;;;;30.50;44.07;98572.56;6219904;23;20157;-90
2023/06/18 11:41:20;;;;;;;5.60;1.80;;;;;;;30.32;43.24;98584.94;6245828;23;20169;-90
2023/06/18 11:43:47;;;;;;;2.22;1.30;;;;;;;30.55;42.57;98573.56;6246550;23;20137;-91
2023/06/18 11:46:36;;;;;;;3.20;1.70;;;;;;;30.27;42.81;98573.13;6219917;23;20161;-91
2023/06/18 11:49:13;;;;;;;3.45;1.70;;;;;;;30.45;42.33;98562.44;6245860;23;20145;-95
2023/06/18 11:51:39;;;;;;;4.75;1.90;;;;;;;30.46;44.86;98555.13;6219430;23;20145;-91
2023/06/18 11:54:04;;;;;;;4.68;1.80;;;;;;;30.40;43.97;98563.06;6246801;23;20184;-92
2023/06/18 11:56:30;;;;;;;2.97;1.60;;;;;;;30.38;42.66;98556.22;6247324;23;20238;-92